Time;durP1;ratioP1;P1;durP2;ratioP2;P2;SDS_P1;SDS_P2;PMS_P1;PMS_P2;Temp;Humidity;BMP_temperature;BMP_pressure;BME280_temperature;BME280_humidity;BME280_pressure;Samples;Min_cycle;Max_cycle;Signal;HPM_P1;HPM_P2
2023/12/26 00:01:32;;;;;;;;;;;;;;;15.32;62.41;98006.48;67643;1280;1016408;-70
2023/12/26 00:04:34;;;;;;;;;;;;;;;15.09;63.50;98026.39;67669;1280;1016507;-72
2023/12/26 00:07:37;;;;;;;;;;;;;;;15.30;62.81;98017.77;67681;1280;1016392;-69
2023/12/26 00:10:39;;;;;;;;;;;;;;;15.16;63.64;98014.67;67636;1280;1016277;-70
2023/12/26 00:13:42;;;;;;;;;;;;;;;15.07;64.50;98006.84;67641;1280;1016092;-69
2023/12/26 00:16:44;;;;;;;;;;;;;;;15.15;64.40;97994.63;67651;1280;1016257;-72
2023/12/26 00:19:47;;;;;;;;;;;;;;;15.20;64.27;98002.98;67662;1280;1016439;-68
2023/12/26 00:22:50;;;;;;;;;;;;;;;15.06;65.01;98010.96;67633;1280;1018240;-72
2023/12/26 00:25:52;;;;;;;;;;;;;;;14.85;66.60;98009.73;67627;1280;1017438;-69
2023/12/26 00:28:55;;;;;;;;;;;;;;;14.62;68.42;98019.52;67667;1280;1016913;-71
2023/12/26 00:31:57;;;;;;;;;;;;;;;14.65;68.65;98018.58;67662;1280;1016456;-73
2023/12/26 00:35:00;;;;;;;;;;;;;;;14.63;69.47;98017.68;67649;1280;1016035;-71
2023/12/26 00:38:03;;;;;;;;;;;;;;;14.68;69.63;98018.54;67630;1280;1017019;-69
2023/12/26 00:41:16;;;;;;;;;;;;;;;;;;;;;
2023/12/26 00:44:28;;;;;;;;;;;;;;;14.50;70.90;98024.66;67643;1280;1016112;-68
2023/12/26 00:47:31;;;;;;;;;;;;;;;14.45;71.43;98031.77;67617;1280;1016433;-68
2023/12/26 00:50:41;;;;;;;;;;;;;;;14.52;71.05;98029.58;67679;1280;1017041;-72
2023/12/26 00:53:43;;;;;;;;;;;;;;;14.40;71.67;98029.77;67665;1280;1016253;-68
2023/12/26 00:56:46;;;;;;;;;;;;;;;14.56;70.91;98026.98;67700;1280;1016367;-72
2023/12/26 00:59:49;;;;;;;;;;;;;;;14.54;70.79;98019.01;67667;1280;1016971;-68
2023/12/26 01:02:51;;;;;;;;;;;;;;;14.46;71.17;98026.24;67641;1280;1016432;-73
2023/12/26 01:05:54;;;;;;;;;;;;;;;14.51;71.07;98030.55;67695;1280;1016652;-72
2023/12/26 01:08:56;;;;;;;;;;;;;;;14.49;71.26;98029.27;67659;1280;1016477;-73
2023/12/26 01:11:59;;;;;;;;;;;;;;;14.52;70.91;98032.05;67641;1280;1016464;-73
2023/12/26 01:15:01;;;;;;;;;;;;;;;14.57;70.49;98033.90;67660;1280;1016464;-73
2023/12/26 01:18:04;;;;;;;;;;;;;;;14.67;69.99;98033.21;67653;1280;1016364;-70
2023/12/26 01:21:08;;;;;;;;;;;;;;;14.81;69.14;98037.93;67629;1280;1016402;-73
2023/12/26 01:24:11;;;;;;;;;;;;;;;14.77;68.94;98039.34;67675;1280;1015839;-73
2023/12/26 01:27:14;;;;;;;;;;;;;;;14.87;68.43;98035.05;67698;1280;1019077;-71
2023/12/26 01:30:17;;;;;;;;;;;;;;;14.79;68.58;98029.61;67615;1280;1016443;-71
2023/12/26 01:33:19;;;;;;;;;;;;;;;14.76;68.70;98022.66;67615;1280;1016127;-69
2023/12/26 01:36:22;;;;;;;;;;;;;;;14.83;68.37;98022.05;67677;1281;1016670;-73
2023/12/26 01:39:26;;;;;;;;;;;;;;;14.92;67.71;98023.33;67677;1280;1016212;-70
2023/12/26 01:42:28;;;;;;;;;;;;;;;15.00;67.25;98026.32;67680;1280;1017186;-71
2023/12/26 01:45:31;;;;;;;;;;;;;;;15.03;67.13;98022.92;67639;1280;1016442;-72
2023/12/26 01:48:34;;;;;;;;;;;;;;;15.12;66.61;98021.77;67672;1280;1016134;-72
2023/12/26 01:51:37;;;;;;;;;;;;;;;14.97;67.44;98021.45;67675;1280;1016745;-73
2023/12/26 01:54:39;;;;;;;;;;;;;;;14.93;67.68;98021.85;67619;1280;1016432;-73
2023/12/26 01:57:42;;;;;;;;;;;;;;;14.80;68.48;98025.52;67682;1280;1016482;-73
2023/12/26 02:00:44;;;;;;;;;;;;;;;14.73;69.29;98019.09;67673;1280;1015930;-72
2023/12/26 02:03:47;;;;;;;;;;;;;;;14.70;69.72;98006.84;67653;1280;1016631;-73
2023/12/26 02:06:49;;;;;;;;;;;;;;;14.89;68.87;98003.58;67664;1280;1016475;-71
2023/12/26 02:09:52;;;;;;;;;;;;;;;14.96;68.42;98002.02;67693;1280;1016312;-73
2023/12/26 02:12:55;;;;;;;;;;;;;;;14.94;68.76;98004.55;67688;1280;1016953;-73
2023/12/26 02:15:57;;;;;;;;;;;;;;;14.61;70.16;98008.20;67639;1280;1016476;-72
2023/12/26 02:19:00;;;;;;;;;;;;;;;14.55;70.81;98002.23;67691;1280;1016499;-72
2023/12/26 02:22:03;;;;;;;;;;;;;;;14.74;70.34;98001.98;67702;1280;1017073;-73
2023/12/26 02:25:07;;;;;;;;;;;;;;;14.79;69.88;98008.04;67628;1280;1016472;-73
2023/12/26 02:28:10;;;;;;;;;;;;;;;14.81;69.76;98004.64;67691;1280;1016397;-72
2023/12/26 02:31:13;;;;;;;;;;;;;;;14.99;69.25;97992.83;67655;1280;1016489;-73
2023/12/26 02:34:16;;;;;;;;;;;;;;;15.06;69.22;97986.83;67631;1280;1015867;-73
2023/12/26 02:37:18;;;;;;;;;;;;;;;15.14;69.09;97971.89;67689;1280;1016558;-71
2023/12/26 02:40:21;;;;;;;;;;;;;;;15.26;68.58;97970.57;67664;1280;1016844;-68
2023/12/26 02:43:23;;;;;;;;;;;;;;;15.10;70.04;97963.67;67641;1280;1016481;-72
2023/12/26 02:46:26;;;;;;;;;;;;;;;15.15;70.12;97957.52;67658;1280;1016472;-71
2023/12/26 02:49:29;;;;;;;;;;;;;;;15.01;70.85;97950.32;67660;1280;1016060;-70
2023/12/26 02:52:32;;;;;;;;;;;;;;;15.26;70.00;97944.85;67637;1280;1016419;-70
2023/12/26 02:55:34;;;;;;;;;;;;;;;15.28;69.99;97938.17;67664;1280;1016529;-70
2023/12/26 02:58:37;;;;;;;;;;;;;;;15.33;70.26;97938.02;67645;1280;1016297;-71
2023/12/26 03:01:39;;;;;;;;;;;;;;;15.43;69.97;97931.69;67664;1280;1016384;-72
2023/12/26 03:04:42;;;;;;;;;;;;;;;15.38;69.89;97928.55;67690;1280;1016344;-73
2023/12/26 03:07:45;;;;;;;;;;;;;;;15.32;70.14;97922.46;67654;1280;1016802;-72
2023/12/26 03:10:47;;;;;;;;;;;;;;;15.30;70.56;97917.71;67599;1280;1016434;-73
2023/12/26 03:13:50;;;;;;;;;;;;;;;15.37;70.09;97912.48;67610;1280;1016419;-72
2023/12/26 03:16:52;;;;;;;;;;;;;;;15.44;70.13;97912.87;67659;1280;1016411;-71
2023/12/26 03:19:55;;;;;;;;;;;;;;;15.61;69.00;97909.27;67626;1280;1016640;-73
2023/12/26 03:22:57;;;;;;;;;;;;;;;15.71;68.55;97907.17;67616;1280;1018117;-73
2023/12/26 03:26:00;;;;;;;;;;;;;;;15.44;69.95;97908.32;67674;1280;1016795;-73
2023/12/26 03:29:03;;;;;;;;;;;;;;;15.45;69.89;97898.81;67682;1280;1017905;-72
2023/12/26 03:32:07;;;;;;;;;;;;;;;15.66;68.75;97888.88;67654;1280;1016418;-73
2023/12/26 03:35:10;;;;;;;;;;;;;;;15.66;68.73;97885.21;67642;1280;1016396;-73
2023/12/26 03:38:15;;;;;;;;;;;;;;;15.77;68.20;97880.27;67657;1280;1016132;-73
2023/12/26 03:41:18;;;;;;;;;;;;;;;15.88;67.64;97869.91;67684;1280;1016153;-73
2023/12/26 03:44:20;;;;;;;;;;;;;;;15.87;67.31;97867.48;67631;1280;1017119;-73
2023/12/26 03:47:23;;;;;;;;;;;;;;;15.99;66.52;97871.88;67639;1280;1016292;-71
2023/12/26 03:50:26;;;;;;;;;;;;;;;15.99;66.59;97870.04;67644;1280;1016446;-71
2023/12/26 03:53:28;;;;;;;;;;;;;;;15.95;66.94;97868.54;67625;1280;1016287;-73
2023/12/26 03:56:31;;;;;;;;;;;;;;;15.99;66.50;97865.45;67669;1280;1016233;-73
2023/12/26 03:59:34;;;;;;;;;;;;;;;16.00;66.37;97857.62;67703;1280;1016617;-71
2023/12/26 04:02:36;;;;;;;;;;;;;;;15.77;67.62;97853.67;67639;1280;1016704;-73
2023/12/26 04:05:39;;;;;;;;;;;;;;;15.93;66.23;97848.71;67633;1279;1016281;-71
2023/12/26 04:08:42;;;;;;;;;;;;;;;15.81;66.94;97849.42;67683;1280;1017167;-71
2023/12/26 04:11:45;;;;;;;;;;;;;;;15.65;67.73;97844.85;67635;1280;1016313;-65
2023/12/26 04:14:47;;;;;;;;;;;;;;;15.62;67.88;97845.81;67654;1280;1016835;-71
2023/12/26 04:17:50;;;;;;;;;;;;;;;15.66;67.68;97845.40;67647;1280;1016186;-73
2023/12/26 04:20:52;;;;;;;;;;;;;;;15.67;67.43;97837.57;67635;1280;1016480;-71
2023/12/26 04:23:55;;;;;;;;;;;;;;;15.83;66.58;97835.30;67632;1280;1016491;-72
2023/12/26 04:26:58;;;;;;;;;;;;;;;15.72;67.04;97821.52;67651;1280;1016574;-72
2023/12/26 04:30:00;;;;;;;;;;;;;;;15.59;67.50;97822.63;67660;1280;1016420;-72
2023/12/26 04:33:03;;;;;;;;;;;;;;;15.53;67.94;97812.69;67638;1280;1018261;-71
2023/12/26 04:36:06;;;;;;;;;;;;;;;15.50;68.12;97811.54;67605;1280;1016290;-70
2023/12/26 04:39:09;;;;;;;;;;;;;;;15.59;67.69;97811.59;67645;1280;1016580;-72
2023/12/26 04:42:12;;;;;;;;;;;;;;;15.53;68.14;97810.02;67636;1280;1016832;-71
2023/12/26 04:45:15;;;;;;;;;;;;;;;15.61;67.43;97800.80;67670;1280;1015996;-72
2023/12/26 04:48:17;;;;;;;;;;;;;;;15.61;67.49;97798.33;67658;1280;1016203;-72
2023/12/26 04:51:20;;;;;;;;;;;;;;;15.73;66.78;97799.10;67621;1280;1015755;-69
2023/12/26 04:54:23;;;;;;;;;;;;;;;15.68;66.85;97804.31;67666;1280;1016473;-71
2023/12/26 04:57:26;;;;;;;;;;;;;;;15.67;66.98;97805.09;67626;1280;1016330;-72
2023/12/26 05:00:28;;;;;;;;;;;;;;;15.58;67.36;97797.14;67640;1280;1016413;-74
2023/12/26 05:03:31;;;;;;;;;;;;;;;15.62;67.18;97790.34;67668;1280;1016437;-72
2023/12/26 05:06:33;;;;;;;;;;;;;;;15.62;67.51;97783.27;67620;1280;1017516;-70
2023/12/26 05:09:36;;;;;;;;;;;;;;;15.71;66.89;97777.81;67607;1280;1017188;-72
2023/12/26 05:12:38;;;;;;;;;;;;;;;15.45;68.23;97777.36;67662;1280;1016492;-70
2023/12/26 05:15:41;;;;;;;;;;;;;;;15.43;68.30;97771.70;67669;1280;1016550;-69
2023/12/26 05:18:44;;;;;;;;;;;;;;;15.44;68.52;97764.23;67595;1280;1016499;-71
2023/12/26 05:21:47;;;;;;;;;;;;;;;15.42;68.42;97763.53;67674;1280;1015924;-71
2023/12/26 05:24:50;;;;;;;;;;;;;;;15.36;68.97;97768.66;67656;1280;1016381;-71
2023/12/26 05:27:53;;;;;;;;;;;;;;;15.34;69.15;97764.34;67651;1280;1017982;-73
2023/12/26 05:30:56;;;;;;;;;;;;;;;15.47;68.48;97760.17;67633;1280;1016206;-73
2023/12/26 05:33:59;;;;;;;;;;;;;;;15.50;68.22;97759.25;67680;1280;1016399;-70
2023/12/26 05:37:02;;;;;;;;;;;;;;;15.39;68.72;97760.80;67648;1280;1016487;-72
2023/12/26 05:40:05;;;;;;;;;;;;;;;15.39;68.71;97751.81;67653;1280;1016179;-73
2023/12/26 05:43:07;;;;;;;;;;;;;;;15.46;68.23;97754.54;67650;1280;1016453;-71
2023/12/26 05:46:10;;;;;;;;;;;;;;;15.35;68.85;97752.36;67629;1280;1016502;-68
2023/12/26 05:49:12;;;;;;;;;;;;;;;15.43;68.49;97747.59;67678;1280;1016436;-73
2023/12/26 05:52:15;;;;;;;;;;;;;;;15.54;67.73;97746.01;67655;1280;1016644;-72
2023/12/26 05:55:18;;;;;;;;;;;;;;;15.60;67.37;97741.64;67668;1280;1016289;-73
2023/12/26 05:58:20;;;;;;;;;;;;;;;15.50;68.21;97737.58;67637;1280;1016964;-68
2023/12/26 06:01:23;;;;;;;;;;;;;;;15.46;67.78;97733.88;67620;1280;1016455;-73
2023/12/26 06:04:25;;;;;;;;;;;;;;;15.76;66.40;97730.96;67662;1280;1016399;-69
2023/12/26 06:07:28;;;;;;;;;;;;;;;15.71;66.69;97727.32;67690;1280;1016639;-73
2023/12/26 06:10:30;;;;;;;;;;;;;;;15.83;65.98;97723.93;67633;1280;1016491;-73
2023/12/26 06:13:33;;;;;;;;;;;;;;;15.96;65.21;97712.56;67621;1280;1016482;-73
2023/12/26 06:16:35;;;;;;;;;;;;;;;15.91;65.40;97712.20;67642;1280;1016288;-74
2023/12/26 06:19:38;;;;;;;;;;;;;;;15.93;65.10;97712.52;67651;1280;1016325;-71
2023/12/26 06:22:40;;;;;;;;;;;;;;;15.89;65.15;97712.77;67630;1280;1016213;-71
2023/12/26 06:25:43;;;;;;;;;;;;;;;15.96;64.86;97706.73;67616;1280;1016512;-69
2023/12/26 06:28:46;;;;;;;;;;;;;;;16.09;64.11;97713.58;67668;1280;1016362;-70
2023/12/26 06:31:49;;;;;;;;;;;;;;;15.89;64.77;97707.86;67661;1280;1016468;-67
2023/12/26 06:34:51;;;;;;;;;;;;;;;15.89;64.58;97707.42;67700;1280;1016464;-73
2023/12/26 06:37:54;;;;;;;;;;;;;;;16.01;64.39;97711.58;67668;1280;1016029;-71
2023/12/26 06:40:57;;;;;;;;;;;;;;;16.01;63.89;97710.61;67624;1280;1016915;-73
2023/12/26 06:43:59;;;;;;;;;;;;;;;16.09;63.53;97710.03;67659;1280;1016474;-73
2023/12/26 06:47:02;;;;;;;;;;;;;;;15.88;64.26;97699.45;67684;1280;1016207;-74
2023/12/26 06:50:04;;;;;;;;;;;;;;;15.91;64.41;97708.49;67623;1280;1019391;-70
2023/12/26 06:53:07;;;;;;;;;;;;;;;16.01;64.15;97706.95;67619;1280;1016352;-73
2023/12/26 06:56:10;;;;;;;;;;;;;;;15.91;64.10;97700.27;67615;1280;1016472;-74
2023/12/26 06:59:12;;;;;;;;;;;;;;;15.89;64.02;97707.85;67644;1280;1016390;-73
2023/12/26 07:02:15;;;;;;;;;;;;;;;15.88;64.47;97714.62;67631;1280;1016321;-72
2023/12/26 07:05:18;;;;;;;;;;;;;;;15.85;64.56;97716.28;67668;1280;1016310;-72
2023/12/26 07:08:21;;;;;;;;;;;;;;;15.76;64.74;97713.66;67647;1280;1016422;-72
2023/12/26 07:11:23;;;;;;;;;;;;;;;15.82;64.55;97723.33;67645;1280;1016998;-71
2023/12/26 07:14:26;;;;;;;;;;;;;;;15.98;63.99;97722.98;67658;1280;1016471;-74
2023/12/26 07:17:28;;;;;;;;;;;;;;;16.05;63.78;97723.83;67631;1280;1016227;-71
2023/12/26 07:20:31;;;;;;;;;;;;;;;16.03;63.61;97719.52;67628;1280;1016338;-69
2023/12/26 07:23:34;;;;;;;;;;;;;;;16.02;63.90;97730.49;67639;1280;1016452;-67
2023/12/26 07:26:36;;;;;;;;;;;;;;;15.92;64.07;97729.89;67656;1280;1016310;-69
2023/12/26 07:29:39;;;;;;;;;;;;;;;15.87;64.42;97725.42;67669;1280;1016489;-68
2023/12/26 07:32:41;;;;;;;;;;;;;;;15.93;64.50;97730.52;67615;1280;1016060;-72
2023/12/26 07:35:45;;;;;;;;;;;;;;;16.07;63.73;97731.21;67642;1280;1016377;-71
2023/12/26 07:38:48;;;;;;;;;;;;;;;16.10;63.58;97731.27;67619;1280;1016511;-68
2023/12/26 07:41:51;;;;;;;;;;;;;;;16.04;63.87;97740.51;67615;1280;1016437;-68
2023/12/26 07:44:54;;;;;;;;;;;;;;;16.19;63.50;97740.70;67672;1280;1016472;-72
2023/12/26 07:47:56;;;;;;;;;;;;;;;16.30;63.36;97744.58;67659;1280;1016293;-73
2023/12/26 07:50:59;;;;;;;;;;;;;;;16.37;62.81;97746.38;67638;1280;1016219;-69
2023/12/26 07:54:01;;;;;;;;;;;;;;;16.45;62.33;97749.27;67643;1280;1016424;-72
2023/12/26 07:57:04;;;;;;;;;;;;;;;16.37;62.87;97744.89;67628;1280;1016396;-72
2023/12/26 08:00:09;;;;;;;;;;;;;;;16.41;62.98;97755.89;67640;1280;1016770;-62
2023/12/26 08:03:15;;;;;;;;;;;;;;;16.50;62.43;97759.22;67626;1280;1016411;-73
2023/12/26 08:06:18;;;;;;;;;;;;;;;16.41;63.17;97751.09;67622;1280;1016447;-72
2023/12/26 08:09:20;;;;;;;;;;;;;;;16.43;62.68;97761.77;67615;1280;1016455;-73
2023/12/26 08:12:23;;;;;;;;;;;;;;;16.61;62.07;97758.42;67656;1280;1016371;-70
2023/12/26 08:15:25;;;;;;;;;;;;;;;16.66;61.68;97767.38;67631;1280;1016101;-70
2023/12/26 08:18:28;;;;;;;;;;;;;;;16.76;61.45;97763.38;67613;1280;1016180;-67
2023/12/26 08:21:31;;;;;;;;;;;;;;;16.61;61.95;97764.89;67658;1280;1016124;-72
2023/12/26 08:24:33;;;;;;;;;;;;;;;16.55;62.12;97767.67;67635;1280;1016288;-73
2023/12/26 08:27:36;;;;;;;;;;;;;;;16.61;62.13;97771.95;67621;1280;1016292;-71
2023/12/26 08:30:39;;;;;;;;;;;;;;;16.84;61.13;97777.27;67655;1280;1016114;-70
2023/12/26 08:33:42;;;;;;;;;;;;;;;16.80;61.19;97796.86;67609;1280;1016479;-72
2023/12/26 08:36:44;;;;;;;;;;;;;;;16.78;61.95;97778.59;67626;1280;1016454;-71
2023/12/26 08:39:47;;;;;;;;;;;;;;;16.85;61.17;97788.09;67602;1280;1016555;-68
2023/12/26 08:42:49;;;;;;;;;;;;;;;16.86;60.82;97797.64;67681;1280;1016443;-69
2023/12/26 08:45:52;;;;;;;;;;;;;;;16.86;61.15;97801.73;67612;1280;1016580;-72
2023/12/26 08:48:55;;;;;;;;;;;;;;;16.99;60.52;97802.88;67645;1280;1016372;-67
2023/12/26 08:51:58;;;;;;;;;;;;;;;17.09;60.66;97812.31;67676;1280;1016095;-72
2023/12/26 08:55:00;;;;;;;;;;;;;;;17.19;59.88;97818.61;67619;1280;1016543;-70
2023/12/26 08:58:03;;;;;;;;;;;;;;;17.43;59.53;97806.98;67635;1280;1016691;-72
2023/12/26 09:01:06;;;;;;;;;;;;;;;17.55;58.66;97799.73;67641;1280;1016416;-65
2023/12/26 09:04:09;;;;;;;;;;;;;;;17.53;58.50;97802.73;67619;1280;1016257;-70
2023/12/26 09:07:13;;;;;;;;;;;;;;;17.51;58.08;97794.81;67639;1280;1016041;-73
2023/12/26 09:10:16;;;;;;;;;;;;;;;17.67;57.58;97798.27;67648;1280;1016338;-73
2023/12/26 09:13:21;;;;;;;;;;;;;;;17.78;57.38;97812.28;67613;1280;1016421;-69
2023/12/26 09:16:23;;;;;;;;;;;;;;;17.72;57.22;97814.14;67628;1280;1016266;-66
2023/12/26 09:19:28;;;;;;;;;;;;;;;17.80;57.28;97815.57;67623;1280;1016288;-70
2023/12/26 09:22:39;;;;;;;;;;;;;;;17.74;57.45;97818.88;65124;1280;6325810;-73
2023/12/26 09:25:42;;;;;;;;;;;;;;;17.67;57.68;97828.35;67648;1280;1018860;-69
2023/12/26 09:28:44;;;;;;;;;;;;;;;17.65;58.02;97827.48;67616;1280;1016309;-73
2023/12/26 09:31:47;;;;;;;;;;;;;;;17.62;57.81;97826.52;67621;1280;1016021;-72
2023/12/26 09:34:50;;;;;;;;;;;;;;;17.57;58.08;97834.85;67654;1280;1016879;-71
2023/12/26 09:37:52;;;;;;;;;;;;;;;17.51;57.85;97830.48;67620;1280;1016343;-73
2023/12/26 09:40:55;;;;;;;;;;;;;;;17.51;58.34;97834.75;67587;1281;1016828;-65
2023/12/26 09:43:57;;;;;;;;;;;;;;;17.52;57.95;97848.10;67631;1280;1016143;-67
2023/12/26 09:47:00;;;;;;;;;;;;;;;17.69;57.16;97832.36;67660;1280;1016290;-65
2023/12/26 09:50:02;;;;;;;;;;;;;;;17.77;56.65;97847.39;67605;1280;1016376;-69
2023/12/26 09:53:05;;;;;;;;;;;;;;;17.87;56.03;97849.14;67626;1281;1016868;-68
2023/12/26 09:56:09;;;;;;;;;;;;;;;18.06;55.36;97847.92;67658;1280;1016487;-64
2023/12/26 09:59:12;;;;;;;;;;;;;;;18.13;55.33;97831.80;67673;1280;1015951;-72
2023/12/26 10:02:14;;;;;;;;;;;;;;;18.18;54.71;97832.64;67679;1280;1016524;-65
2023/12/26 10:05:17;;;;;;;;;;;;;;;18.37;54.26;97807.44;67669;1280;1016530;-68
2023/12/26 10:08:19;;;;;;;;;;;;;;;18.13;54.50;97843.44;67628;1280;1016489;-70
2023/12/26 10:11:22;;;;;;;;;;;;;;;18.05;54.46;97847.28;67687;1280;1016850;-67
2023/12/26 10:14:24;;;;;;;;;;;;;;;17.91;55.21;97839.79;67642;1280;1017299;-72
2023/12/26 10:17:27;;;;;;;;;;;;;;;17.99;54.87;97839.70;67665;1280;1017632;-71
2023/12/26 10:20:30;;;;;;;;;;;;;;;17.92;54.85;97826.58;67640;1280;1016337;-68
2023/12/26 10:23:32;;;;;;;;;;;;;;;17.84;55.48;97831.08;67668;1280;1016405;-72
2023/12/26 10:26:35;;;;;;;;;;;;;;;17.77;55.92;97839.56;67654;1280;1016430;-65
2023/12/26 10:29:37;;;;;;;;;;;;;;;17.66;56.25;97842.50;67621;1280;1018986;-73
2023/12/26 10:32:40;;;;;;;;;;;;;;;17.42;57.44;97824.88;67605;1280;1016188;-72
2023/12/26 10:35:43;;;;;;;;;;;;;;;17.47;57.84;97848.78;67635;1280;1016296;-73
2023/12/26 10:38:45;;;;;;;;;;;;;;;17.40;57.78;97855.29;67713;1280;1016914;-72
2023/12/26 10:41:48;;;;;;;;;;;;;;;17.33;58.01;97848.87;67647;1280;1016447;-72
2023/12/26 10:44:50;;;;;;;;;;;;;;;17.38;58.35;97850.11;67664;1280;1018129;-64
2023/12/26 10:47:53;;;;;;;;;;;;;;;17.43;58.30;97851.91;67705;1280;1018223;-68
2023/12/26 10:50:56;;;;;;;;;;;;;;;17.43;58.25;97850.47;67668;1280;1016455;-69
2023/12/26 10:53:59;;;;;;;;;;;;;;;17.36;58.33;97840.99;67653;1280;1016288;-68
2023/12/26 10:57:01;;;;;;;;;;;;;;;17.38;57.63;97858.86;67687;1280;1016480;-67
2023/12/26 13:53:34;;;;;;;;;;;;;;;14.64;71.47;98073.45;67658;1280;1016578;-72
2023/12/26 13:56:37;;;;;;;;;;;;;;;14.61;71.62;98088.79;67623;1280;1016441;-70
2023/12/26 13:59:39;;;;;;;;;;;;;;;14.79;70.29;98083.46;67704;1280;1016326;-74
2023/12/26 14:02:42;;;;;;;;;;;;;;;14.84;70.34;98086.75;67684;1280;1016433;-69
2023/12/26 14:05:45;;;;;;;;;;;;;;;14.91;69.85;98092.64;67621;1280;1016410;-70
2023/12/26 14:08:47;;;;;;;;;;;;;;;15.02;68.99;98095.66;67656;1280;1016544;-73
2023/12/26 14:11:50;;;;;;;;;;;;;;;15.18;67.29;98114.14;67650;1280;1016314;-70
2023/12/26 14:14:53;;;;;;;;;;;;;;;15.04;67.63;98106.42;67620;1280;1015690;-72
2023/12/26 14:17:56;;;;;;;;;;;;;;;14.94;68.15;98101.34;67676;1280;1016523;-74
2023/12/26 14:21:00;;;;;;;;;;;;;;;14.94;67.30;98108.70;67669;1280;1016353;-74
2023/12/26 14:24:02;;;;;;;;;;;;;;;14.93;67.39;98107.98;67656;1280;1016283;-70
2023/12/26 14:27:06;;;;;;;;;;;;;;;15.10;66.11;98114.32;67629;1280;1016694;-69
2023/12/26 14:30:09;;;;;;;;;;;;;;;15.12;65.53;98117.63;67663;1280;1016486;-66
2023/12/26 14:33:19;;;;;;;;;;;;;;;15.16;65.05;98116.98;67664;1280;1016182;-71
2023/12/26 14:36:34;;;;;;;;;;;;;;;15.39;63.30;98122.95;67693;1280;1016247;-72
2023/12/26 14:39:37;;;;;;;;;;;;;;;15.33;63.34;98110.52;67698;1280;1016486;-70
2023/12/26 14:42:39;;;;;;;;;;;;;;;15.20;62.62;98137.14;67640;1281;1016637;-69
2023/12/26 14:45:42;;;;;;;;;;;;;;;15.30;61.49;98134.48;67698;1280;1018405;-74
2023/12/26 14:48:45;;;;;;;;;;;;;;;15.39;60.84;98142.13;67667;1280;1018560;-74
2023/12/26 14:51:47;;;;;;;;;;;;;;;15.35;59.63;98151.67;67648;1281;1017118;-72
2023/12/26 14:54:51;;;;;;;;;;;;;;;15.23;59.51;98150.30;67692;1280;1016439;-64
2023/12/26 14:57:55;;;;;;;;;;;;;;;15.31;58.77;98153.16;67659;1280;1016477;-72
2023/12/26 15:00:58;;;;;;;;;;;;;;;15.01;58.97;98168.70;67630;1280;1016373;-68
2023/12/26 15:04:00;;;;;;;;;;;;;;;15.09;58.57;98169.39;67669;1280;1016351;-65
2023/12/26 15:07:05;;;;;;;;;;;;;;;15.00;57.96;98177.54;67649;1280;1016311;-66
2023/12/26 15:10:10;;;;;;;;;;;;;;;14.95;57.83;98186.14;67704;1280;1016400;-67
2023/12/26 15:13:13;;;;;;;;;;;;;;;15.00;57.93;98184.40;67654;1280;1016362;-72
2023/12/26 15:16:15;;;;;;;;;;;;;;;14.81;57.35;98195.59;67650;1281;1016495;-74
2023/12/26 15:19:18;;;;;;;;;;;;;;;14.83;57.63;98194.35;67700;1280;1017523;-75
2023/12/26 15:22:21;;;;;;;;;;;;;;;14.76;56.74;98207.11;67708;1280;1016411;-67
2023/12/26 15:25:23;;;;;;;;;;;;;;;14.67;57.12;98194.69;67654;1280;1016513;-66
2023/12/26 15:28:27;;;;;;;;;;;;;;;14.65;57.35;98201.38;67718;1280;1016466;-70
2023/12/26 15:31:30;;;;;;;;;;;;;;;14.62;57.22;98208.04;67711;1280;1016455;-73
2023/12/26 15:34:33;;;;;;;;;;;;;;;14.60;57.27;98206.04;67709;1280;1018356;-73
2023/12/26 15:37:36;;;;;;;;;;;;;;;14.51;57.06;98217.20;67610;1281;1016379;-70
2023/12/26 15:40:38;;;;;;;;;;;;;;;14.60;57.10;98203.55;67672;1280;1016181;-70
2023/12/26 15:43:41;;;;;;;;;;;;;;;14.65;56.98;98207.53;67661;1281;1016494;-70
2023/12/26 15:46:46;;;;;;;;;;;;;;;14.47;57.69;98207.36;67677;1280;1016447;-71
2023/12/26 15:49:48;;;;;;;;;;;;;;;14.35;58.27;98206.78;67642;1280;1016575;-69
2023/12/26 15:52:53;;;;;;;;;;;;;;;14.46;58.37;98206.36;67652;1280;1016350;-66
2023/12/26 15:55:56;;;;;;;;;;;;;;;14.44;58.88;98206.54;67643;1280;1016879;-67
2023/12/26 15:59:01;;;;;;;;;;;;;;;14.40;59.08;98215.13;67633;1281;1016341;-74
2023/12/26 16:02:04;;;;;;;;;;;;;;;14.31;59.70;98220.30;67650;1280;1016314;-74
2023/12/26 16:05:09;;;;;;;;;;;;;;;14.32;59.80;98223.52;67651;1280;1016075;-67
2023/12/26 16:08:12;;;;;;;;;;;;;;;14.34;59.80;98226.05;67668;1281;1016634;-73
2023/12/26 16:11:15;;;;;;;;;;;;;;;14.26;60.29;98233.73;67682;1281;1015848;-69
2023/12/26 16:14:19;;;;;;;;;;;;;;;14.25;60.52;98235.27;67644;1280;1016468;-74
2023/12/26 16:17:25;;;;;;;;;;;;;;;14.12;61.07;98230.39;67682;1280;1016498;-67
2023/12/26 16:20:30;;;;;;;;;;;;;;;14.15;60.62;98228.71;67643;1280;1016462;-72
2023/12/26 16:23:32;;;;;;;;;;;;;;;14.34;59.69;98240.13;67658;1280;1019563;-72
2023/12/26 16:26:35;;;;;;;;;;;;;;;14.36;59.45;98245.73;67690;1281;1016436;-69
2023/12/26 16:29:39;;;;;;;;;;;;;;;14.24;59.89;98256.57;67594;1280;1017466;-69
2023/12/26 16:32:43;;;;;;;;;;;;;;;14.29;59.84;98263.08;67650;1280;1015846;-74
2023/12/26 16:35:46;;;;;;;;;;;;;;;14.32;59.82;98260.88;67633;1280;1016205;-66
2023/12/26 16:38:49;;;;;;;;;;;;;;;14.41;59.31;98255.69;67671;1280;1016435;-72
2023/12/26 16:41:52;;;;;;;;;;;;;;;14.35;59.48;98255.52;67663;1280;1016381;-74
2023/12/26 16:44:55;;;;;;;;;;;;;;;14.29;59.81;98261.14;67709;1281;1016498;-70
2023/12/26 16:47:58;;;;;;;;;;;;;;;14.47;59.26;98260.43;67657;1281;1016385;-70
2023/12/26 16:51:02;;;;;;;;;;;;;;;14.36;59.76;98259.96;67641;1281;1016568;-74
2023/12/26 16:54:07;;;;;;;;;;;;;;;14.37;60.00;98255.69;67628;1281;1019808;-72
2023/12/26 16:57:10;;;;;;;;;;;;;;;14.53;59.31;98263.61;67639;1281;1016619;-74
2023/12/26 17:00:13;;;;;;;;;;;;;;;14.65;59.19;98265.63;67690;1281;1016287;-69
2023/12/26 17:03:18;;;;;;;;;;;;;;;14.67;59.60;98270.89;67652;1281;1016374;-71
2023/12/26 17:06:22;;;;;;;;;;;;;;;14.76;59.96;98279.42;67663;1280;1016387;-69
2023/12/26 17:09:24;;;;;;;;;;;;;;;14.88;59.56;98276.45;67646;1281;1016430;-66
2023/12/26 17:12:27;;;;;;;;;;;;;;;14.86;60.12;98279.31;67659;1280;1018276;-69
2023/12/26 17:15:32;;;;;;;;;;;;;;;14.69;61.39;98271.60;67669;1280;1016209;-74
2023/12/26 17:18:35;;;;;;;;;;;;;;;14.52;62.02;98285.21;67605;1280;1016453;-74
2023/12/26 17:21:37;;;;;;;;;;;;;;;14.53;61.59;98284.71;67671;1280;1016504;-68
2023/12/26 17:24:40;;;;;;;;;;;;;;;14.46;61.78;98270.05;67632;1279;1015933;-68
2023/12/26 17:27:43;;;;;;;;;;;;;;;14.54;61.82;98266.73;67691;1281;1016127;-71
2023/12/26 17:30:46;;;;;;;;;;;;;;;14.56;61.88;98277.98;67655;1280;1016270;-70
2023/12/26 17:33:50;;;;;;;;;;;;;;;14.85;60.40;98272.88;67615;1280;1016480;-73
2023/12/26 17:36:53;;;;;;;;;;;;;;;14.89;59.95;98282.77;67640;1280;1016379;-70
2023/12/26 17:39:57;;;;;;;;;;;;;;;15.03;59.05;98290.13;67687;1281;1016996;-69
2023/12/26 17:43:00;;;;;;;;;;;;;;;15.15;58.27;98298.46;67652;1280;1016360;-73
2023/12/26 17:46:03;;;;;;;;;;;;;;;15.01;58.63;98300.20;67601;1281;1016373;-71
2023/12/26 17:49:07;;;;;;;;;;;;;;;14.84;58.78;98310.12;67614;1280;1016316;-71
2023/12/26 17:52:10;;;;;;;;;;;;;;;14.57;59.05;98306.70;67637;1280;1016159;-74
2023/12/26 17:55:15;;;;;;;;;;;;;;;14.56;59.19;98321.98;67669;1280;1016532;-71
2023/12/26 17:58:28;;;;;;;;;;;;;;;;;;;;;
2023/12/26 18:01:42;;;;;;;;;;;;;;;14.76;57.76;98317.98;67667;1280;1016278;-71
2023/12/26 18:04:45;;;;;;;;;;;;;;;14.72;57.31;98330.69;67639;1280;1016292;-73
2023/12/26 18:07:48;;;;;;;;;;;;;;;14.65;57.20;98336.38;67656;1280;1016264;-75
2023/12/26 18:10:50;;;;;;;;;;;;;;;14.46;57.39;98352.14;67703;1280;1016273;-74
2023/12/26 18:13:53;;;;;;;;;;;;;;;14.41;57.35;98333.47;67659;1280;1016128;-69
2023/12/26 18:16:57;;;;;;;;;;;;;;;14.40;57.24;98333.13;67656;1280;1018445;-73
2023/12/26 18:20:00;;;;;;;;;;;;;;;14.29;56.85;98343.09;67675;1280;1016345;-72
2023/12/26 18:23:02;;;;;;;;;;;;;;;14.35;56.51;98337.09;67700;1280;1017417;-70